Time;durP1;ratioP1;P1;durP2;ratioP2;P2;SDS_P1;SDS_P2;PMS_P1;PMS_P2;Temp;Humidity;BMP_temperature;BMP_pressure;BME280_temperature;BME280_humidity;BME280_pressure;Samples;Min_cycle;Max_cycle;Signal;HPM_P1;HPM_P2
2021/03/26 00:01:31;;;;;;;32.38;18.35;;;;;;;4.95;100.00;101281.63;5084862;28;20039;-59
2021/03/26 00:04:00;;;;;;;35.15;17.35;;;;;;;5.15;100.00;101289.84;5083392;28;20559;-59
2021/03/26 00:06:29;;;;;;;36.55;17.67;;;;;;;4.99;100.00;101290.19;5082559;28;20055;-59
2021/03/26 00:08:58;;;;;;;37.13;18.08;;;;;;;4.97;100.00;101287.63;5078603;28;20028;-59
2021/03/26 00:11:28;;;;;;;36.67;19.92;;;;;;;5.12;100.00;101290.09;5081395;28;20458;-60
2021/03/26 00:13:55;;;;;;;36.42;19.20;;;;;;;5.04;100.00;101289.81;5084416;28;20373;-59
2021/03/26 00:16:23;;;;;;;40.47;20.08;;;;;;;5.15;100.00;101282.75;5083683;28;20328;-60
2021/03/26 00:18:51;;;;;;;36.08;18.45;;;;;;;5.14;100.00;101280.22;5080140;28;20044;-60
2021/03/26 00:21:18;;;;;;;41.67;21.92;;;;;;;5.30;100.00;101283.41;5083611;28;20040;-59
2021/03/26 00:23:45;;;;;;;44.80;21.38;;;;;;;5.37;100.00;101280.28;5080634;28;20034;-59
2021/03/26 00:26:12;;;;;;;40.65;20.08;;;;;;;5.44;100.00;101274.38;5083587;28;20177;-59
2021/03/26 00:28:39;;;;;;;39.17;20.67;;;;;;;5.48;100.00;101280.28;5079411;28;20044;-59
2021/03/26 00:31:06;;;;;;;38.92;20.05;;;;;;;5.56;100.00;101277.91;5084215;28;20055;-59
2021/03/26 00:33:35;;;;;;;40.50;22.30;;;;;;;5.57;100.00;101278.72;5080693;28;20093;-59
2021/03/26 00:36:03;;;;;;;45.03;21.55;;;;;;;5.60;100.00;101271.41;5084176;28;20036;-60
2021/03/26 00:38:30;;;;;;;44.95;22.58;;;;;;;5.74;100.00;101267.66;5081907;28;20047;-59
2021/03/26 00:40:57;;;;;;;39.72;21.70;;;;;;;5.77;100.00;101274.50;5082661;28;20044;-59
2021/03/26 00:43:24;;;;;;;40.80;19.58;;;;;;;5.74;100.00;101270.31;5082124;28;20067;-59
2021/03/26 00:45:51;;;;;;;43.70;20.38;;;;;;;5.79;100.00;101262.84;5084799;28;20064;-59
2021/03/26 00:48:19;;;;;;;40.17;19.67;;;;;;;5.70;100.00;101268.88;5080688;28;20048;-59
2021/03/26 00:50:49;;;;;;;40.92;21.30;;;;;;;5.78;100.00;101263.78;5082880;28;20068;-59
2021/03/26 00:53:19;;;;;;;37.80;20.23;;;;;;;5.74;100.00;101265.03;5085318;28;20412;-59
2021/03/26 00:55:46;;;;;;;37.13;19.65;;;;;;;5.68;100.00;101260.19;5080721;28;20044;-59
2021/03/26 00:58:13;;;;;;;39.65;19.83;;;;;;;5.82;100.00;101251.97;5079619;28;20058;-59
2021/03/26 01:00:41;;;;;;;39.38;20.13;;;;;;;5.79;100.00;101241.63;5082775;28;20049;-59
2021/03/26 01:03:11;;;;;;;36.75;19.17;;;;;;;5.65;100.00;101244.53;5083230;28;20051;-59
2021/03/26 01:05:41;;;;;;;35.20;19.80;;;;;;;5.61;100.00;101238.63;5084459;28;20032;-59
2021/03/26 01:08:10;;;;;;;44.00;21.30;;;;;;;5.41;100.00;101234.03;5083051;28;20044;-59
2021/03/26 01:10:40;;;;;;;34.47;19.25;;;;;;;5.46;100.00;101240.66;5084381;28;20410;-59
2021/03/26 01:13:08;;;;;;;32.45;19.25;;;;;;;5.35;100.00;101230.06;5087491;28;20036;-59
2021/03/26 01:15:36;;;;;;;39.55;19.75;;;;;;;5.25;100.00;101231.75;5085699;28;20071;-59
2021/03/26 01:18:07;;;;;;;40.35;20.63;;;;;;;5.12;100.00;101235.31;5085121;28;20048;-59
2021/03/26 01:20:37;;;;;;;38.80;20.25;;;;;;;5.25;100.00;101229.94;5087166;28;20051;-59
2021/03/26 01:23:05;;;;;;;40.58;20.25;;;;;;;5.26;100.00;101222.81;5082229;28;20036;-59
2021/03/26 01:25:35;;;;;;;39.28;19.70;;;;;;;5.16;100.00;101223.53;5084980;28;20039;-59
2021/03/26 01:28:03;;;;;;;37.00;20.35;;;;;;;5.12;100.00;101216.78;5080687;28;20043;-59
2021/03/26 01:30:31;;;;;;;39.63;20.10;;;;;;;5.08;100.00;101212.69;5085211;28;20304;-59
2021/03/26 01:32:58;;;;;;;36.53;19.50;;;;;;;5.09;100.00;101213.53;5085442;28;20269;-59
2021/03/26 01:35:26;;;;;;;33.90;17.75;;;;;;;5.21;100.00;101199.34;5088705;28;20055;-59
2021/03/26 01:37:53;;;;;;;45.55;20.45;;;;;;;5.31;100.00;101204.78;5080472;28;20059;-59
2021/03/26 01:40:24;;;;;;;39.53;20.92;;;;;;;5.33;100.00;101198.41;5087057;28;20044;-59
2021/03/26 01:42:53;;;;;;;37.83;20.73;;;;;;;5.25;100.00;101190.22;5086256;28;20308;-59
2021/03/26 01:45:25;;;;;;;39.10;19.77;;;;;;;5.27;100.00;101200.69;5086170;28;20044;-59
2021/03/26 01:47:54;;;;;;;44.25;20.85;;;;;;;5.20;100.00;101191.53;5083421;28;20432;-59
2021/03/26 01:50:24;;;;;;;40.63;21.80;;;;;;;5.41;100.00;101192.50;5086462;28;20125;-59
2021/03/26 01:52:51;;;;;;;42.78;19.67;;;;;;;5.30;100.00;101197.78;5082318;28;20051;-59
2021/03/26 01:55:22;;;;;;;38.42;18.90;;;;;;;5.29;100.00;101196.13;5086315;28;20186;-60
2021/03/26 01:57:49;;;;;;;35.47;18.77;;;;;;;5.20;100.00;101197.66;5079747;28;20059;-60
2021/03/26 02:00:30;;;;;;;37.80;19.92;;;;;;;5.26;100.00;101186.59;5081796;28;20039;-59
2021/03/26 02:03:02;;;;;;;39.88;20.15;;;;;;;5.28;100.00;101186.50;5084038;28;20044;-59
2021/03/26 02:05:30;;;;;;;37.90;18.42;;;;;;;5.36;100.00;101181.44;5087456;28;20105;-59
2021/03/26 02:07:57;;;;;;;37.00;17.77;;;;;;;5.30;100.00;101184.56;5082554;28;20052;-59
2021/03/26 02:10:25;;;;;;;39.80;18.15;;;;;;;5.29;100.00;101178.41;5086168;28;20135;-59
2021/03/26 02:12:56;;;;;;;34.53;17.60;;;;;;;5.21;100.00;101169.41;5084638;28;20052;-59
2021/03/26 02:15:28;;;;;;;32.95;18.45;;;;;;;5.29;100.00;101175.78;5084050;28;20039;-59
2021/03/26 02:17:56;;;;;;;41.47;20.75;;;;;;;5.26;100.00;101169.84;5082797;28;20047;-59
2021/03/26 02:20:36;;;;;;;34.67;18.98;;;;;;;5.14;100.00;101177.78;5086250;28;20036;-59
2021/03/26 02:23:07;;;;;;;37.05;17.65;;;;;;;4.97;100.00;101170.31;5083393;28;20367;-58
2021/03/26 02:25:34;;;;;;;35.83;18.95;;;;;;;5.01;100.00;101169.13;5085559;28;20262;-59
2021/03/26 02:28:01;;;;;;;35.53;19.00;;;;;;;5.05;100.00;101161.81;5080409;28;20044;-61
2021/03/26 02:30:45;;;;;;;36.83;18.08;;;;;;;4.99;100.00;101165.78;5084057;28;20123;-59
2021/03/26 02:33:12;;;;;;;36.80;18.13;;;;;;;4.96;100.00;101155.41;5087153;28;20037;-59
2021/03/26 02:35:42;;;;;;;36.53;17.98;;;;;;;4.89;100.00;101154.19;5087771;28;20201;-61
2021/03/26 02:38:15;;;;;;;39.22;19.38;;;;;;;4.91;100.00;101160.22;5082073;28;20040;-59
2021/03/26 02:40:44;;;;;;;39.20;18.90;;;;;;;4.97;100.00;101154.44;5082040;28;20525;-61
2021/03/26 02:43:33;;;;;;;39.22;18.80;;;;;;;4.86;100.00;101157.91;5084904;28;20036;-61
2021/03/26 02:46:03;;;;;;;32.58;18.00;;;;;;;4.81;100.00;101154.78;5080965;28;20386;-61
2021/03/26 02:48:36;;;;;;;42.33;19.23;;;;;;;4.91;100.00;101150.47;5081350;28;20131;-61
2021/03/26 02:51:10;;;;;;;36.27;18.23;;;;;;;4.77;100.00;101148.88;5082630;28;20045;-61
2021/03/26 02:53:44;;;;;;;36.70;18.90;;;;;;;4.62;100.00;101150.03;5080594;28;20063;-59
2021/03/26 02:56:16;;;;;;;37.03;19.02;;;;;;;4.58;100.00;101154.72;5084618;28;20044;-59
2021/03/26 02:58:47;;;;;;;41.88;19.50;;;;;;;4.58;100.00;101154.72;5078834;28;20040;-59
2021/03/26 03:01:21;;;;;;;36.55;18.35;;;;;;;4.40;100.00;101148.19;5085785;28;20044;-59
2021/03/26 03:03:50;;;;;;;38.92;20.58;;;;;;;4.55;100.00;101154.09;5082787;28;20542;-59
2021/03/26 03:06:20;;;;;;;36.08;18.55;;;;;;;4.53;100.00;101151.56;5085288;28;20345;-59
2021/03/26 03:08:48;;;;;;;38.35;19.70;;;;;;;4.58;100.00;101143.28;5080216;28;20055;-61
2021/03/26 03:11:18;;;;;;;37.90;18.83;;;;;;;4.50;100.00;101141.22;5083501;28;20439;-59
2021/03/26 03:13:48;;;;;;;36.33;17.75;;;;;;;4.52;100.00;101144.59;5083643;28;20039;-59
2021/03/26 03:16:19;;;;;;;32.70;17.65;;;;;;;4.69;100.00;101138.03;5085479;28;20051;-61
2021/03/26 03:18:52;;;;;;;33.53;17.42;;;;;;;4.65;100.00;101144.53;5083885;28;20129;-61
2021/03/26 03:21:27;;;;;;;46.08;19.35;;;;;;;4.65;100.00;101134.78;5083386;28;20029;-59
2021/03/26 03:23:58;;;;;;;31.02;17.30;;;;;;;4.53;100.00;101133.06;5084336;28;20062;-59
2021/03/26 03:26:33;;;;;;;32.30;16.55;;;;;;;4.46;100.00;101135.31;5084677;28;20265;-59
2021/03/26 03:29:06;;;;;;;35.47;17.83;;;;;;;4.43;100.00;101135.56;5079988;28;20408;-59
2021/03/26 03:31:40;;;;;;;36.50;17.27;;;;;;;4.38;100.00;101128.91;5084894;28;20036;-59
2021/03/26 03:34:14;;;;;;;31.42;16.33;;;;;;;4.45;100.00;101128.38;5083430;28;20032;-59
2021/03/26 03:36:48;;;;;;;37.58;18.65;;;;;;;4.53;100.00;101129.59;5083931;28;20047;-59
2021/03/26 03:39:22;;;;;;;30.27;15.32;;;;;;;4.34;100.00;101128.31;5081727;28;20040;-59
2021/03/26 03:41:58;;;;;;;32.25;17.38;;;;;;;4.51;100.00;101127.06;5085291;28;20064;-59
2021/03/26 03:44:33;;;;;;;31.50;16.80;;;;;;;4.50;100.00;101121.88;5084961;28;20259;-58
2021/03/26 03:47:06;;;;;;;34.83;19.10;;;;;;;4.62;100.00;101118.28;5082001;28;20051;-58
2021/03/26 03:49:39;;;;;;;35.22;17.10;;;;;;;4.68;100.00;101122.25;5078862;28;20405;-59
2021/03/26 03:52:10;;;;;;;32.03;17.00;;;;;;;4.73;100.00;101118.31;5084038;28;20051;-59
2021/03/26 03:54:43;;;;;;;32.25;16.42;;;;;;;4.68;100.00;101117.84;5082689;28;20053;-59
2021/03/26 03:57:13;;;;;;;35.33;16.77;;;;;;;4.59;100.00;101115.88;5082096;28;20064;-59
2021/03/26 03:59:43;;;;;;;30.95;17.23;;;;;;;4.62;100.00;101113.00;5082167;28;20047;-58
2021/03/26 04:02:12;;;;;;;34.05;16.63;;;;;;;4.71;100.00;101106.19;5083505;28;20044;-59
2021/03/26 04:04:42;;;;;;;34.80;18.45;;;;;;;4.57;100.00;101099.28;5080511;28;20455;-59
2021/03/26 04:07:12;;;;;;;35.08;16.65;;;;;;;4.55;100.00;101102.06;5083337;28;20047;-59
2021/03/26 04:09:44;;;;;;;31.05;16.95;;;;;;;4.54;100.00;101105.66;5083111;28;20131;-59
2021/03/26 04:12:13;;;;;;;35.67;18.15;;;;;;;4.63;100.00;101104.09;5081087;28;20044;-59
2021/03/26 04:14:44;;;;;;;38.25;18.67;;;;;;;4.63;100.00;101106.75;5082383;28;20047;-59
2021/03/26 04:17:16;;;;;;;35.28;17.67;;;;;;;4.59;100.00;101103.50;5081630;28;20042;-58
2021/03/26 04:19:46;;;;;;;37.30;19.02;;;;;;;4.43;100.00;101101.16;5079925;28;20090;-59
2021/03/26 04:22:18;;;;;;;37.00;18.38;;;;;;;4.44;100.00;101096.75;5084141;28;20074;-59
2021/03/26 04:24:48;;;;;;;37.08;19.77;;;;;;;4.33;100.00;101107.28;5083795;28;20353;-59
2021/03/26 04:27:19;;;;;;;42.35;21.23;;;;;;;4.33;100.00;101105.47;5078064;28;20043;-59
2021/03/26 04:29:50;;;;;;;39.40;21.00;;;;;;;4.43;100.00;101098.53;5082554;28;20447;-59
2021/03/26 04:32:22;;;;;;;45.58;21.25;;;;;;;4.51;100.00;101105.03;5086050;28;20036;-59
2021/03/26 04:34:50;;;;;;;39.95;18.88;;;;;;;4.32;100.00;101101.13;5083467;28;20093;-59
2021/03/26 04:37:23;;;;;;;41.70;19.40;;;;;;;4.33;100.00;101102.00;5083907;28;20431;-59
2021/03/26 04:39:56;;;;;;;41.05;20.50;;;;;;;4.56;100.00;101101.09;5083877;28;20055;-59
2021/03/26 04:42:27;;;;;;;35.45;18.50;;;;;;;4.43;100.00;101098.53;5084402;28;20055;-59
2021/03/26 04:45:00;;;;;;;40.60;19.52;;;;;;;4.42;100.00;101096.00;5084134;28;20300;-59
2021/03/26 04:47:32;;;;;;;37.17;19.77;;;;;;;4.34;100.00;101093.94;5087354;28;20043;-59
2021/03/26 04:50:03;;;;;;;37.95;18.38;;;;;;;4.35;100.00;101095.63;5088116;28;20391;-59
2021/03/26 04:52:35;;;;;;;41.97;19.88;;;;;;;4.30;100.00;101089.84;5086813;28;20040;-58
2021/03/26 04:55:09;;;;;;;40.25;19.92;;;;;;;4.23;100.00;101088.63;5085466;28;20047;-59
2021/03/26 04:57:38;;;;;;;38.72;18.77;;;;;;;4.20;100.00;101099.44;5082669;28;20047;-59
2021/03/26 05:00:09;;;;;;;37.38;21.00;;;;;;;4.19;100.00;101089.81;5088031;28;20317;-59
2021/03/26 05:02:49;;;;;;;43.75;19.67;;;;;;;4.20;100.00;101094.16;5085423;28;20428;-59
2021/03/26 05:05:17;;;;;;;39.53;19.58;;;;;;;3.98;100.00;101090.44;5085282;28;20105;-59
2021/03/26 05:07:46;;;;;;;43.63;20.55;;;;;;;3.94;100.00;101086.34;5082756;28;20040;-61
2021/03/26 05:10:17;;;;;;;38.33;20.67;;;;;;;3.91;100.00;101086.56;5089561;28;20293;-59
2021/03/26 05:12:46;;;;;;;45.17;21.17;;;;;;;3.85;100.00;101087.03;5086173;28;20044;-61
2021/03/26 05:15:17;;;;;;;43.63;21.90;;;;;;;3.90;100.00;101082.25;5087767;28;20033;-59
2021/03/26 05:17:47;;;;;;;44.88;21.20;;;;;;;4.02;100.00;101078.69;5083631;28;20440;-60
2021/03/26 05:20:22;;;;;;;41.28;21.02;;;;;;;4.07;100.00;101081.84;5088853;28;20058;-61
2021/03/26 05:22:53;;;;;;;55.22;21.30;;;;;;;4.06;100.00;101072.22;5088271;28;20339;-61
2021/03/26 05:25:26;;;;;;;42.47;21.08;;;;;;;4.11;100.00;101072.72;5087509;28;20050;-61
2021/03/26 05:27:54;;;;;;;46.08;22.58;;;;;;;4.13;100.00;101069.97;5083001;28;20040;-61
2021/03/26 05:30:24;;;;;;;45.40;23.30;;;;;;;4.14;100.00;101072.50;5088944;28;20430;-61
2021/03/26 05:33:14;;;;;;;40.80;19.77;;;;;;;4.09;100.00;101076.44;5080250;28;20048;-59
2021/03/26 05:35:50;;;;;;;43.20;20.50;;;;;;;4.03;100.00;101064.53;5085657;28;20040;-59
2021/03/26 05:38:20;;;;;;;44.97;20.00;;;;;;;4.15;100.00;101073.31;5081812;28;20048;-60
2021/03/26 05:41:17;;;;;;;49.50;21.27;;;;;;;4.08;100.00;101072.09;5082780;28;20051;-61
2021/03/26 05:43:57;;;;;;;41.90;20.17;;;;;;;4.09;100.00;101064.06;5046860;28;20052;-59
2021/03/26 05:46:32;;;;;;;38.10;18.88;;;;;;;4.25;100.00;101063.75;5082823;28;20125;-58
2021/03/26 05:49:04;;;;;;;40.33;19.67;;;;;;;4.17;100.00;101065.28;5081204;28;20040;-59
2021/03/26 05:52:11;;;;;;;44.03;19.25;;;;;;;4.12;100.00;101058.53;5085974;28;20346;-59
2021/03/26 05:54:51;;;;;;;42.38;18.33;;;;;;;4.27;100.00;101056.53;5050266;28;20446;-59
2021/03/26 05:57:24;;;;;;;42.47;20.27;;;;;;;4.50;100.00;101061.06;5082146;28;20054;-62
2021/03/26 06:00:17;;;;;;;40.58;19.13;;;;;;;4.58;100.00;101066.56;5086210;28;20467;-59
2021/03/26 06:02:56;;;;;;;36.22;18.05;;;;;;;4.49;100.00;101054.91;5099092;27;20470;-59
2021/03/26 06:05:59;;;;;;;40.30;19.05;;;;;;;4.72;100.00;101060.22;5082174;28;20050;-59
2021/03/26 06:08:51;;;;;;;33.42;17.63;;;;;;;4.76;100.00;101062.53;5084234;28;20518;-59
2021/03/26 06:11:40;;;;;;;34.42;16.95;;;;;;;4.82;100.00;101066.50;5088248;28;20253;-59
2021/03/26 06:14:26;;;;;;;33.35;16.75;;;;;;;4.82;100.00;101062.03;5083790;28;20037;-59
2021/03/26 06:17:15;;;;;;;37.72;16.80;;;;;;;5.13;100.00;101061.41;5082220;28;20063;-59
2021/03/26 06:19:55;;;;;;;35.38;17.30;;;;;;;5.21;100.00;101060.81;5082096;28;20064;-59
2021/03/26 06:22:35;;;;;;;34.50;17.25;;;;;;;5.28;100.00;101056.72;5083638;28;20051;-61
2021/03/26 06:25:19;;;;;;;30.63;15.90;;;;;;;5.45;100.00;101061.50;5081176;28;20036;-61
2021/03/26 06:27:54;;;;;;;28.33;15.43;;;;;;;5.67;100.00;101062.41;5076906;28;20055;-61
2021/03/26 06:30:26;;;;;;;29.50;15.25;;;;;;;5.81;100.00;101058.63;5082616;28;20097;-61
2021/03/26 06:33:40;;;;;;;26.90;14.27;;;;;;;5.88;100.00;101058.97;5081330;28;20305;-61
2021/03/26 06:36:28;;;;;;;33.72;14.75;;;;;;;6.11;100.00;101060.59;5082470;28;20157;-60
2021/03/26 06:39:28;;;;;;;29.80;15.00;;;;;;;6.51;100.00;101061.69;5074175;28;20055;-61
2021/03/26 06:42:19;;;;;;;28.52;14.30;;;;;;;6.35;100.00;101054.19;5077053;28;20052;-59
2021/03/26 06:44:54;;;;;;;27.90;15.18;;;;;;;6.58;100.00;101062.00;5042281;28;20489;-59
2021/03/26 06:47:31;;;;;;;28.95;14.52;;;;;;;7.06;100.00;101048.13;5077453;28;20040;-59
2021/03/26 06:50:10;;;;;;;26.05;14.38;;;;;;;6.25;100.00;101055.94;5078682;28;20104;-60
2021/03/26 06:52:48;;;;;;;27.85;15.02;;;;;;;6.48;100.00;101056.66;5083175;28;20440;-61
2021/03/26 06:55:31;;;;;;;28.13;14.02;;;;;;;7.18;100.00;101055.00;5083908;28;20208;-59
2021/03/26 06:58:10;;;;;;;23.88;13.98;;;;;;;7.47;100.00;101038.31;5078990;28;20028;-59
2021/03/26 07:00:59;;;;;;;26.42;12.68;;;;;;;7.21;100.00;101040.63;5079133;28;20075;-61
2021/03/26 07:03:46;;;;;;;23.27;12.75;;;;;;;6.76;100.00;101036.53;5080755;28;20051;-59
2021/03/26 07:06:48;;;;;;;25.13;13.80;;;;;;;6.68;100.00;101042.50;5079221;28;20054;-59
2021/03/26 07:09:37;;;;;;;22.92;11.95;;;;;;;6.57;100.00;101045.25;5076533;28;20043;-59
2021/03/26 07:12:14;;;;;;;23.67;11.60;;;;;;;6.52;100.00;101053.59;5081695;28;20360;-59
2021/03/26 07:14:51;;;;;;;25.50;13.10;;;;;;;6.68;100.00;101047.81;5083424;28;20032;-59
2021/03/26 07:17:57;;;;;;;24.90;12.88;;;;;;;6.66;100.00;101046.25;5084209;28;20498;-59
2021/03/26 07:20:57;;;;;;;21.45;11.48;;;;;;;6.75;100.00;101047.28;5083428;28;20328;-59
2021/03/26 07:24:30;;;;;;;25.08;12.65;;;;;;;6.65;100.00;101052.53;5085560;28;20047;-59
2021/03/26 07:27:15;;;;;;;20.10;10.90;;;;;;;6.73;100.00;101050.06;5002462;28;20057;-59
2021/03/26 07:30:07;;;;;;;23.77;12.15;;;;;;;6.70;100.00;101048.50;4991094;28;20061;-59
2021/03/26 07:32:45;;;;;;;21.15;11.27;;;;;;;6.93;100.00;101055.47;5066386;28;20055;-59
2021/03/26 07:35:29;;;;;;;21.13;11.73;;;;;;;6.93;100.00;101055.47;5077972;28;20127;-59
2021/03/26 07:38:08;;;;;;;18.85;10.82;;;;;;;6.96;100.00;101056.06;5074738;28;20047;-59
2021/03/26 07:40:43;;;;;;;22.17;11.50;;;;;;;7.06;100.00;101056.94;5076228;28;20036;-59
2021/03/26 07:43:30;;;;;;;19.63;11.68;;;;;;;7.05;100.00;101057.06;5079669;28;20048;-59
2021/03/26 07:46:35;;;;;;;24.88;11.60;;;;;;;7.17;100.00;101058.66;5079728;28;20095;-59
2021/03/26 07:49:27;;;;;;;18.05;10.70;;;;;;;7.17;100.00;101061.31;5048562;28;20032;-59
2021/03/26 07:52:00;;;;;;;23.98;12.23;;;;;;;7.21;100.00;101051.22;5083413;28;20248;-59
2021/03/26 07:54:45;;;;;;;17.90;9.60;;;;;;;7.36;100.00;101055.19;5079932;28;20123;-59
2021/03/26 07:57:34;;;;;;;;;;;;;;;7.38;100.00;101049.75;5080704;28;20055;-59
2021/03/26 08:00:25;;;;;;;22.05;11.23;;;;;;;7.36;100.00;101052.53;5065319;28;20004;-59
2021/03/26 08:03:12;;;;;;;21.13;11.73;;;;;;;7.65;100.00;101059.72;5080386;28;20067;-61
2021/03/26 08:05:50;;;;;;;16.63;10.23;;;;;;;7.71;100.00;101063.63;5081677;28;20093;-61
2021/03/26 08:08:48;;;;;;;19.52;9.75;;;;;;;7.96;100.00;101056.94;5080559;28;20040;-61
2021/03/26 08:11:27;;;;;;;23.70;10.73;;;;;;;7.96;100.00;101058.78;5081773;28;20097;-61
2021/03/26 08:14:05;;;;;;;19.77;10.50;;;;;;;7.90;100.00;101058.34;5077342;28;20127;-61
2021/03/26 08:17:26;;;;;;;19.75;11.05;;;;;;;8.36;100.00;101049.75;5084493;28;20050;-61
2021/03/26 08:20:16;;;;;;;22.70;10.13;;;;;;;8.27;100.00;101062.09;4997661;28;20085;-61
2021/03/26 08:22:52;;;;;;;21.05;10.70;;;;;;;8.50;100.00;101056.50;4999598;28;20050;-61
2021/03/26 08:25:31;;;;;;;15.85;10.00;;;;;;;8.64;100.00;101063.19;5065886;28;20060;-61
2021/03/26 08:28:18;;;;;;;15.05;10.30;;;;;;;8.72;100.00;101063.31;5079246;28;20431;-61
2021/03/26 08:30:48;;;;;;;18.05;10.80;;;;;;;8.71;100.00;101069.63;5084127;28;20040;-61
2021/03/26 08:33:23;;;;;;;17.45;9.65;;;;;;;8.87;100.00;101059.16;5084431;28;20337;-61
2021/03/26 08:36:21;;;;;;;16.83;9.23;;;;;;;9.11;100.00;101058.66;5076402;28;20046;-59
2021/03/26 08:38:59;;;;;;;15.48;9.63;;;;;;;9.08;100.00;101060.78;5080742;28;20055;-61
2021/03/26 08:41:28;;;;;;;16.33;9.10;;;;;;;9.09;100.00;101059.81;5083297;28;20044;-60
2021/03/26 08:43:57;;;;;;;15.57;8.48;;;;;;;9.64;100.00;101065.09;5077749;28;20305;-61
2021/03/26 08:46:26;;;;;;;20.08;8.77;;;;;;;9.54;100.00;101064.31;5077332;28;20066;-60
2021/03/26 08:49:00;;;;;;;19.90;8.68;;;;;;;9.81;100.00;101067.94;5079132;28;20044;-61
2021/03/26 08:52:07;;;;;;;13.52;8.80;;;;;;;9.75;100.00;101057.84;5078669;28;20470;-60
2021/03/26 08:54:44;;;;;;;;;;;;;;;10.04;100.00;101062.13;5079891;28;20059;-60
2021/03/26 08:57:13;;;;;;;;;;;;;;;9.90;100.00;101060.84;5081292;28;19927;-60
2021/03/26 08:59:48;;;;;;;20.05;8.35;;;;;;;10.58;100.00;101054.06;5082914;28;19981;-60
2021/03/26 09:02:31;;;;;;;16.98;8.90;;;;;;;10.25;100.00;101051.09;5081750;28;20044;-60
2021/03/26 09:05:31;;;;;;;15.93;8.27;;;;;;;10.22;100.00;101056.75;5080801;28;20032;-60
2021/03/26 09:08:14;;;;;;;13.98;7.45;;;;;;;10.56;100.00;101045.34;5075529;28;20043;-61
2021/03/26 09:11:13;;;;;;;12.80;7.57;;;;;;;10.73;100.00;101044.47;5076959;28;20086;-60
2021/03/26 09:13:53;;;;;;;14.35;7.60;;;;;;;10.91;100.00;101044.38;5078429;28;20048;-60
2021/03/26 09:16:22;;;;;;;13.27;6.88;;;;;;;10.46;100.00;101048.97;5079286;28;20039;-60
2021/03/26 09:19:00;;;;;;;10.32;6.90;;;;;;;10.83;100.00;101041.66;5078071;28;20055;-59
2021/03/26 09:21:35;;;;;;;10.95;6.72;;;;;;;10.57;100.00;101036.34;4999154;28;20337;-60
2021/03/26 09:24:11;;;;;;;11.50;6.60;;;;;;;10.99;100.00;101036.41;4999037;28;20136;-60
2021/03/26 09:26:48;;;;;;;11.98;6.18;;;;;;;11.73;100.00;101032.25;5000984;28;20225;-60
2021/03/26 09:29:19;;;;;;;10.13;5.93;;;;;;;12.09;100.00;101038.13;4998152;28;20489;-61
2021/03/26 09:31:50;;;;;;;8.55;5.75;;;;;;;12.10;100.00;101029.13;5003277;28;20124;-61
2021/03/26 09:34:23;;;;;;;10.40;5.93;;;;;;;13.21;100.00;101032.00;5005016;28;20042;-60
2021/03/26 09:37:09;;;;;;;15.65;6.18;;;;;;;12.99;100.00;101018.38;5002312;28;20150;-61
2021/03/26 09:39:37;;;;;;;10.25;5.53;;;;;;;12.75;100.00;101025.47;5001081;28;20097;-62
2021/03/26 09:42:18;;;;;;;9.85;6.13;;;;;;;11.88;100.00;101014.56;5001819;28;20062;-62
2021/03/26 09:44:48;;;;;;;9.60;5.35;;;;;;;11.65;100.00;101020.56;5007362;28;20046;-61
2021/03/26 09:47:18;;;;;;;10.02;5.50;;;;;;;12.25;100.00;101010.53;5003115;28;20136;-61
2021/03/26 09:49:50;;;;;;;9.45;4.57;;;;;;;12.26;100.00;101014.03;5001771;28;20153;-61
2021/03/26 09:52:21;;;;;;;10.02;5.10;;;;;;;12.37;100.00;101001.13;5036529;28;20439;-61
2021/03/26 09:54:50;;;;;;;9.43;4.97;;;;;;;12.85;100.00;101001.16;5084019;28;20067;-61
2021/03/26 09:57:36;;;;;;;11.70;4.63;;;;;;;12.07;100.00;100999.19;5083176;28;20111;-61
2021/03/26 10:00:18;;;;;;;9.65;4.50;;;;;;;12.89;100.00;100991.78;5084960;28;20066;-61
2021/03/26 10:02:56;;;;;;;9.50;5.10;;;;;;;12.91;100.00;100988.91;5085641;28;20051;-61
2021/03/26 10:05:32;;;;;;;6.30;4.07;;;;;;;12.97;100.00;100982.00;5085251;28;20059;-61
2021/03/26 10:08:07;;;;;;;8.43;3.92;;;;;;;13.03;100.00;100992.88;5080888;28;20045;-61
2021/03/26 10:10:44;;;;;;;10.20;4.88;;;;;;;12.79;100.00;100991.16;5082112;28;20041;-60
2021/03/26 10:13:14;;;;;;;5.88;3.20;;;;;;;13.18;100.00;101001.03;5083930;28;20040;-60
2021/03/26 10:15:43;;;;;;;7.65;3.25;;;;;;;13.55;100.00;100991.44;5084011;28;20051;-61
2021/03/26 10:18:13;;;;;;;7.65;4.00;;;;;;;13.39;100.00;100984.31;5082264;28;20045;-60
2021/03/26 10:20:48;;;;;;;5.90;3.72;;;;;;;12.82;100.00;100984.63;5084749;28;20392;-60
2021/03/26 10:23:25;;;;;;;10.65;4.43;;;;;;;13.00;100.00;100977.16;5081982;28;20344;-60
2021/03/26 10:26:01;;;;;;;5.55;3.47;;;;;;;12.93;100.00;100968.16;5081433;28;20068;-60
2021/03/26 10:28:54;;;;;;;6.32;4.13;;;;;;;14.15;100.00;100969.28;5077307;28;20048;-61
2021/03/26 10:31:30;;;;;;;7.30;3.90;;;;;;;13.26;100.00;100970.66;5081462;28;20040;-61
2021/03/26 10:34:00;;;;;;;6.88;3.80;;;;;;;13.96;100.00;100958.06;5080624;28;20048;-61
2021/03/26 10:36:32;;;;;;;7.18;3.42;;;;;;;14.19;100.00;100959.84;5080859;28;20244;-60
2021/03/26 10:39:06;;;;;;;6.05;3.85;;;;;;;12.95;100.00;100959.94;5078252;28;20286;-61
2021/03/26 10:41:37;;;;;;;4.50;3.23;;;;;;;13.31;100.00;100941.47;5083197;28;20036;-61
2021/03/26 10:44:18;;;;;;;10.32;4.55;;;;;;;14.15;100.00;100942.44;5082368;28;20039;-61
2021/03/26 10:46:49;;;;;;;8.13;3.20;;;;;;;14.51;100.00;100945.22;5083275;28;20048;-61
2021/03/26 10:49:22;;;;;;;6.72;3.90;;;;;;;15.39;100.00;100945.25;5078069;28;20071;-61
2021/03/26 10:51:51;;;;;;;6.20;3.15;;;;;;;14.27;100.00;100935.59;5116138;27;20040;-61
2021/03/26 10:54:29;;;;;;;5.65;3.20;;;;;;;15.04;100.00;100933.50;5081892;28;20446;-61
2021/03/26 10:57:14;;;;;;;7.95;3.35;;;;;;;13.17;100.00;100934.16;5083557;28;20040;-60
2021/03/26 10:59:45;;;;;;;10.38;4.65;;;;;;;14.25;100.00;100927.72;5081437;28;20059;-60
2021/03/26 11:02:42;;;;;;;5.47;2.97;;;;;;;14.81;100.00;100926.41;5084815;28;20028;-61
2021/03/26 11:05:18;;;;;;;4.28;2.33;;;;;;;13.35;100.00;100926.69;5077139;28;20093;-60
2021/03/26 11:07:50;;;;;;;4.53;2.70;;;;;;;13.58;100.00;100920.47;5080389;28;20049;-61
2021/03/26 11:10:20;;;;;;;6.28;2.90;;;;;;;13.90;100.00;100935.47;5085803;28;20040;-60
2021/03/26 11:12:51;;;;;;;7.22;2.38;;;;;;;15.14;100.00;100929.50;5078731;28;20048;-60
2021/03/26 11:15:20;;;;;;;3.65;2.85;;;;;;;13.47;100.00;100927.13;5074752;28;20063;-60
2021/03/26 11:17:58;;;;;;;3.35;1.92;;;;;;;13.40;100.00;100921.63;5077640;28;20332;-60
2021/03/26 11:20:33;;;;;;;4.00;1.98;;;;;;;12.75;100.00;100910.25;5082581;28;20047;-60
2021/03/26 11:23:10;;;;;;;5.35;2.17;;;;;;;13.51;100.00;100914.16;5081394;28;20443;-61
2021/03/26 11:25:39;;;;;;;4.63;2.38;;;;;;;14.10;100.00;100908.94;5081794;28;20089;-60
2021/03/26 11:28:15;;;;;;;6.57;2.88;;;;;;;13.99;100.00;100914.75;5079357;28;20052;-60
2021/03/26 11:30:48;;;;;;;2.55;2.05;;;;;;;14.09;100.00;100901.88;5082497;28;20044;-61
2021/03/26 11:33:26;;;;;;;3.08;2.30;;;;;;;14.81;100.00;100899.53;5078942;28;20893;-60
2021/03/26 11:35:55;;;;;;;5.20;2.40;;;;;;;14.80;100.00;100895.19;5084824;28;20506;-60
2021/03/26 11:38:24;;;;;;;3.42;2.15;;;;;;;14.55;100.00;100881.22;5081783;28;20039;-59
2021/03/26 11:40:59;;;;;;;4.78;2.80;;;;;;;15.23;100.00;100891.72;5083366;28;20052;-59
2021/03/26 11:43:28;;;;;;;4.28;2.22;;;;;;;15.14;100.00;100893.72;5083767;28;20046;-62
2021/03/26 11:46:03;;;;;;;4.30;2.30;;;;;;;14.90;100.00;100884.13;5084682;28;20367;-62
2021/03/26 11:48:44;;;;;;;3.75;2.17;;;;;;;13.49;100.00;100889.38;5083361;28;20444;-61
2021/03/26 11:51:14;;;;;;;3.70;2.47;;;;;;;14.47;100.00;100887.50;5083673;28;20036;-61